createdAt,value
2023-01-09T00:00:06.099Z,160558.81
2023-01-09T00:03:10.005Z,160547.03
2023-01-09T00:06:14.682Z,160560.09
2023-01-09T00:09:18.973Z,160553.56
2023-01-09T00:12:22.908Z,160549.63
2023-01-09T00:15:27.303Z,160550.97
2023-01-09T00:18:31.639Z,160552.25
2023-01-09T00:21:36.985Z,160557.47
2023-01-09T00:24:40.789Z,160562.72
2023-01-09T00:27:45.645Z,160571.84
2023-01-09T00:30:57.039Z,160567.94
2023-01-09T00:34:05.258Z,160586.22
2023-01-09T00:37:12.074Z,160611.03
2023-01-09T00:40:17.243Z,160607.16
2023-01-09T00:43:24.028Z,160628.06
2023-01-09T00:46:34.388Z,160639.78
2023-01-09T00:49:38.470Z,160611.03
2023-01-09T00:52:43.337Z,160605.84
2023-01-09T00:55:47.558Z,160588.81
2023-01-09T00:58:52.111Z,160590.16
2023-01-09T01:01:56.420Z,160590.16
2023-01-09T01:05:19.230Z,160577.09
2023-01-09T01:08:23.274Z,160601.91
2023-01-09T01:11:27.522Z,160601.91
2023-01-09T01:14:31.509Z,160592.75
2023-01-09T01:17:37.337Z,160607.16
2023-01-09T01:20:43.041Z,160605.84
2023-01-09T01:23:47.058Z,160616.28
2023-01-09T01:26:51.238Z,160604.56
2023-01-09T01:29:56.107Z,160639.78
2023-01-09T01:33:01.020Z,160629.38
2023-01-09T01:36:07.881Z,160654.19
2023-01-09T01:39:12.136Z,160656.78
2023-01-09T01:42:16.279Z,160635.84
2023-01-09T01:45:26.442Z,160622.81
2023-01-09T01:48:31.936Z,160604.56
2023-01-09T01:51:44.898Z,160630.66
2023-01-09T01:54:49.305Z,160676.38
2023-01-09T01:57:57.656Z,160671.13
2023-01-09T02:01:02.494Z,160643.69
2023-01-09T02:04:07.566Z,160665.91
2023-01-09T02:07:11.992Z,160660.72
2023-01-09T02:10:16.025Z,160686.88
2023-01-09T02:13:20.556Z,160677.69
2023-01-09T02:16:41.543Z,160668.50
2023-01-09T02:20:04.192Z,160651.53
2023-01-09T02:23:40.427Z,160662.03
2023-01-09T02:26:44.252Z,160673.75
2023-01-09T02:30:13.256Z,160690.78
2023-01-09T02:33:36.200Z,160718.16
2023-01-09T02:37:01.636Z,160736.50
2023-01-09T02:40:20.334Z,160716.88
2023-01-09T02:43:26.213Z,160736.50
2023-01-09T02:46:29.975Z,160718.16
2023-01-09T02:49:38.407Z,160718.16
2023-01-09T02:53:03.326Z,160711.69
2023-01-09T02:56:33.592Z,160718.16
2023-01-09T03:00:16.157Z,160733.84
2023-01-09T03:03:27.506Z,160743.03
2023-01-09T03:06:31.415Z,160737.78
2023-01-09T03:09:39.816Z,160753.47
2023-01-09T03:12:46.769Z,160753.47
2023-01-09T03:15:53.244Z,160744.34
2023-01-09T03:18:59.334Z,160745.69
2023-01-09T03:22:03.953Z,160739.09
2023-01-09T03:25:08.293Z,160735.19
2023-01-09T03:28:29.553Z,160715.63
2023-01-09T03:31:33.759Z,160736.50
2023-01-09T03:34:38.059Z,160707.75
2023-01-09T03:37:42.174Z,160703.84
2023-01-09T03:40:46.358Z,160690.78
2023-01-09T03:43:50.568Z,160694.66
2023-01-09T03:46:54.368Z,160703.84
2023-01-09T03:49:58.564Z,160711.69
2023-01-09T03:53:02.509Z,160688.13
2023-01-09T03:56:06.982Z,160680.28
2023-01-09T03:59:11.116Z,160698.59
2023-01-09T04:02:15.623Z,160701.19
2023-01-09T04:05:19.986Z,160669.84
2023-01-09T04:08:23.917Z,160662.03
2023-01-09T04:11:27.891Z,160669.84
2023-01-09T04:14:32.106Z,160652.88
2023-01-09T04:17:36.450Z,160663.31
2023-01-09T04:20:41.011Z,160668.50
2023-01-09T04:23:45.477Z,160697.25
2023-01-09T04:26:49.119Z,160682.94
2023-01-09T04:29:53.319Z,160680.28
2023-01-09T04:32:57.308Z,160688.13
2023-01-09T04:36:01.421Z,160673.75
2023-01-09T04:39:05.494Z,160697.25
2023-01-09T04:42:10.655Z,160669.84
2023-01-09T04:45:15.643Z,160676.38
2023-01-09T04:48:19.436Z,160656.78
2023-01-09T04:51:23.225Z,160686.88
2023-01-09T04:54:27.747Z,160665.91
2023-01-09T04:57:31.715Z,160667.19
2023-01-09T05:00:35.955Z,160693.34
2023-01-09T05:03:40.071Z,160688.13
2023-01-09T05:06:44.285Z,160681.63
2023-01-09T05:09:48.417Z,160698.59
2023-01-09T05:12:52.594Z,160690.78
2023-01-09T05:15:56.557Z,160714.28
2023-01-09T05:19:00.827Z,160695.94
2023-01-09T05:22:05.159Z,160698.59
2023-01-09T05:25:08.918Z,160709.03
2023-01-09T05:28:13.009Z,160697.25
2023-01-09T05:31:18.588Z,160698.59
2023-01-09T05:34:23.636Z,160681.63
2023-01-09T05:37:27.587Z,160673.75
2023-01-09T05:40:39.496Z,160680.28
2023-01-09T05:43:44.068Z,160650.28
2023-01-09T05:46:47.782Z,160671.13
2023-01-09T05:49:51.478Z,160679.00
2023-01-09T05:52:55.299Z,160672.44
2023-01-09T05:55:59.555Z,160682.94
2023-01-09T05:59:03.717Z,160648.94
2023-01-09T06:02:07.546Z,160648.94
2023-01-09T06:05:11.135Z,160663.31
2023-01-09T06:08:15.109Z,160681.63
2023-01-09T06:11:18.829Z,160692.00
2023-01-09T06:14:23.004Z,160685.53
2023-01-09T06:17:26.819Z,160732.59
2023-01-09T06:20:33.923Z,160722.09
2023-01-09T06:23:38.221Z,160703.84
2023-01-09T06:26:42.474Z,160701.19
2023-01-09T06:29:46.351Z,160698.59
2023-01-09T06:32:50.691Z,160662.03
2023-01-09T06:35:54.938Z,160658.13
2023-01-09T06:38:59.285Z,160654.19
2023-01-09T06:42:04.329Z,160656.78
2023-01-09T06:45:08.879Z,160679.00
2023-01-09T06:48:13.073Z,160714.28
2023-01-09T06:51:17.183Z,160697.25
2023-01-09T06:54:21.772Z,160685.53
2023-01-09T06:57:26.246Z,160692.00
2023-01-09T07:00:31.387Z,160693.34
2023-01-09T07:03:35.175Z,160709.03
2023-01-09T07:06:39.406Z,160731.25
2023-01-09T07:09:43.358Z,160716.88
2023-01-09T07:12:47.449Z,160716.88
2023-01-09T07:15:53.596Z,160715.63
2023-01-09T07:18:57.612Z,160709.03
2023-01-09T07:22:01.984Z,160731.25
2023-01-09T07:25:06.357Z,160710.38
2023-01-09T07:28:10.846Z,160722.09
2023-01-09T07:31:14.762Z,160732.59
2023-01-09T07:34:19.526Z,160737.78
2023-01-09T07:37:23.485Z,160736.50
2023-01-09T07:40:27.639Z,160749.56
2023-01-09T07:43:31.658Z,160756.09
2023-01-09T07:46:35.680Z,160752.16
2023-01-09T07:49:39.745Z,160776.97
2023-01-09T07:52:47.538Z,160774.38
2023-01-09T07:55:51.406Z,160779.56
2023-01-09T07:58:55.328Z,160790.09
2023-01-09T08:01:59.474Z,160807.06
2023-01-09T08:05:03.928Z,160814.91
2023-01-09T08:08:07.946Z,160850.16
2023-01-09T08:11:11.781Z,160848.91
2023-01-09T08:14:16.484Z,160867.16
2023-01-09T08:17:20.304Z,160905.06
2023-01-09T08:20:24.084Z,160922.09
2023-01-09T08:23:28.366Z,160920.78
2023-01-09T08:26:32.477Z,160922.09
2023-01-09T08:29:36.374Z,160924.69
2023-01-09T08:32:41.180Z,160924.69
2023-01-09T08:35:45.473Z,160941.69
2023-01-09T08:38:49.606Z,160974.31
2023-01-09T08:42:12.097Z,160958.66
2023-01-09T08:45:35.152Z,160960.00
2023-01-09T08:48:39.380Z,160954.75
2023-01-09T08:51:43.216Z,160895.94
2023-01-09T08:54:47.271Z,160877.63
2023-01-09T08:57:52.462Z,160886.75
2023-01-09T09:00:56.588Z,160926.03
2023-01-09T09:04:01.392Z,160944.34
2023-01-09T09:07:05.553Z,160958.66
2023-01-09T09:10:10.278Z,160988.75
2023-01-09T09:13:14.402Z,161012.28
2023-01-09T09:16:18.487Z,161031.88
2023-01-09T09:19:22.411Z,161051.50
2023-01-09T09:22:27.473Z,161035.78
2023-01-09T09:25:31.490Z,161048.84
2023-01-09T09:28:35.600Z,161084.22
2023-01-09T09:31:39.978Z,161140.38
2023-01-09T09:34:44.059Z,161184.88
2023-01-09T09:37:59.544Z,161246.38
2023-01-09T09:41:48.399Z,161292.13
2023-01-09T09:45:14.534Z,161292.13
2023-01-09T09:48:28.435Z,161243.72
2023-01-09T09:51:55.742Z,161184.88
2023-01-09T09:55:05.489Z,161141.72
2023-01-09T09:58:21.823Z,161101.19
2023-01-09T10:01:36.580Z,161072.41
2023-01-09T10:04:48.870Z,161042.38
2023-01-09T10:07:53.678Z,161043.69
2023-01-09T10:10:57.786Z,161075.03
2023-01-09T10:14:10.403Z,161098.53
2023-01-09T10:17:35.559Z,161102.47
2023-01-09T10:20:45.935Z,161085.47
2023-01-09T10:23:53.869Z,161054.09
2023-01-09T10:27:02.178Z,161013.59
2023-01-09T10:30:31.109Z,160999.16
2023-01-09T10:33:40.883Z,161009.66
2023-01-09T10:37:03.792Z,161022.72
2023-01-09T10:40:20.462Z,161086.81
2023-01-09T10:43:35.032Z,161110.38
2023-01-09T10:46:54.404Z,161129.97
2023-01-09T10:49:59.213Z,161140.38
2023-01-09T10:53:16.357Z,161139.09
2023-01-09T10:56:38.821Z,161187.50
2023-01-09T10:59:43.051Z,161200.59
2023-01-09T11:02:48.161Z,161187.50
2023-01-09T11:05:54.637Z,161167.88
2023-01-09T11:09:01.307Z,161140.38
2023-01-09T11:12:24.132Z,161128.66
2023-01-09T11:15:30.906Z,161085.47
2023-01-09T11:18:39.800Z,161037.13
2023-01-09T11:21:44.314Z,161018.84
2023-01-09T11:25:00.938Z,160983.50
2023-01-09T11:28:06.866Z,160974.31
2023-01-09T11:31:24.564Z,160980.91
2023-01-09T11:34:32.373Z,160954.75
2023-01-09T11:37:36.454Z,160928.56
2023-01-09T11:41:02.604Z,160910.31
2023-01-09T11:44:13.954Z,160905.06
2023-01-09T11:47:39.457Z,160910.31
2023-01-09T11:50:54.966Z,160949.53
2023-01-09T11:54:04.940Z,160983.50
2023-01-09T11:57:12.234Z,160987.44
2023-01-09T12:00:25.506Z,160975.66
2023-01-09T12:03:53.046Z,160979.56
2023-01-09T12:07:18.240Z,160937.75
2023-01-09T12:10:40.925Z,160928.56
2023-01-09T12:13:55.989Z,160957.34
2023-01-09T12:17:18.786Z,160970.44
2023-01-09T12:20:28.839Z,161030.59
2023-01-09T12:24:07.240Z,161122.13
2023-01-09T12:27:23.383Z,161169.16
2023-01-09T12:30:38.940Z,161175.75
2023-01-09T12:34:09.293Z,161211.03
2023-01-09T12:37:40.164Z,161218.88
2023-01-09T12:41:23.003Z,161228.00
2023-01-09T12:44:41.482Z,161239.81
2023-01-09T12:47:50.821Z,161276.41
2023-01-09T12:51:17.581Z,161300.00
2023-01-09T12:54:43.838Z,161302.59
2023-01-09T12:57:56.266Z,161226.75
2023-01-09T13:01:03.965Z,161183.56
2023-01-09T13:04:23.289Z,161145.63
2023-01-09T13:07:33.907Z,161093.34
2023-01-09T13:10:45.297Z,161056.72
2023-01-09T13:14:14.487Z,161068.53
2023-01-09T13:17:23.868Z,161052.78
2023-01-09T13:20:49.644Z,161046.25
2023-01-09T13:24:15.701Z,161067.22
2023-01-09T13:27:23.376Z,161060.63
2023-01-09T13:30:47.823Z,161005.75
2023-01-09T13:33:58.194Z,160963.91
2023-01-09T13:37:03.051Z,160948.25
2023-01-09T13:40:26.688Z,160926.03
2023-01-09T13:43:55.058Z,160927.28
2023-01-09T13:47:02.210Z,160957.34
2023-01-09T13:50:09.305Z,160923.41
2023-01-09T13:53:19.102Z,160954.75
2023-01-09T13:56:23.937Z,160975.66
2023-01-09T13:59:28.732Z,160997.94
2023-01-09T14:02:35.657Z,160988.75
2023-01-09T14:05:39.628Z,160960.00
2023-01-09T14:08:46.011Z,160957.34
2023-01-09T14:12:03.041Z,160935.16
2023-01-09T14:15:22.918Z,160943.00
2023-01-09T14:18:31.095Z,160923.41
2023-01-09T14:21:47.757Z,160911.59
2023-01-09T14:24:53.381Z,160912.91
2023-01-09T14:27:57.489Z,160910.31
2023-01-09T14:31:07.485Z,160895.94
2023-01-09T14:34:38.956Z,160909.00
2023-01-09T14:37:45.908Z,160922.09
2023-01-09T14:41:02.250Z,160905.06
2023-01-09T14:44:19.585Z,160888.09
2023-01-09T14:47:45.470Z,160882.81
2023-01-09T14:50:55.443Z,160868.50
2023-01-09T14:54:02.109Z,160827.97
2023-01-09T14:57:34.068Z,160813.59
2023-01-09T15:00:47.731Z,160814.91
2023-01-09T15:03:58.808Z,160797.94
2023-01-09T15:07:03.936Z,160774.38
2023-01-09T15:10:14.810Z,160758.69
2023-01-09T15:13:30.977Z,160745.69
2023-01-09T15:16:35.114Z,160733.84
2023-01-09T15:19:44.842Z,160715.63
2023-01-09T15:22:52.793Z,160715.63
2023-01-09T15:26:32.935Z,160676.38
2023-01-09T15:29:37.320Z,160662.03
2023-01-09T15:32:48.669Z,160680.28
2023-01-09T15:35:59.858Z,160703.84
2023-01-09T15:39:06.698Z,160703.84
2023-01-09T15:42:42.506Z,160688.13
2023-01-09T15:45:48.264Z,160662.03
2023-01-09T15:48:55.555Z,160718.16
2023-01-09T15:52:01.194Z,160724.72
2023-01-09T15:55:23.452Z,160715.63
2023-01-09T15:58:34.626Z,160728.66
2023-01-09T16:01:40.567Z,160729.94
2023-01-09T16:04:44.686Z,160735.19
2023-01-09T16:07:50.637Z,160745.69
2023-01-09T16:10:58.343Z,160735.19
2023-01-09T16:14:20.956Z,160741.72
2023-01-09T16:17:26.801Z,160744.34
2023-01-09T16:20:30.906Z,160743.03
2023-01-09T16:23:36.229Z,160746.91
2023-01-09T16:26:40.403Z,160752.16
2023-01-09T16:29:57.448Z,160753.47
2023-01-09T16:33:02.787Z,160745.69
2023-01-09T16:36:07.798Z,160715.63
2023-01-09T16:39:18.799Z,160709.03
2023-01-09T16:42:41.917Z,160697.25
2023-01-09T16:45:46.298Z,160685.53
2023-01-09T16:48:50.520Z,160685.53
2023-01-09T16:51:55.353Z,160710.38
2023-01-09T16:54:59.416Z,160718.16
2023-01-09T16:58:04.197Z,160735.19
2023-01-09T17:01:10.349Z,160729.94
2023-01-09T17:04:17.138Z,160752.16
2023-01-09T17:07:25.509Z,160754.75
2023-01-09T17:10:32.117Z,160749.56
2023-01-09T17:13:36.393Z,160724.72
2023-01-09T17:16:43.326Z,160693.34
2023-01-09T17:19:48.031Z,160677.69
2023-01-09T17:22:51.664Z,160643.69
2023-01-09T17:26:17.396Z,160646.28
2023-01-09T17:29:21.596Z,160614.97
2023-01-09T17:32:26.008Z,160595.41
2023-01-09T17:35:30.155Z,160575.81
2023-01-09T17:38:34.038Z,160552.25
2023-01-09T17:41:38.067Z,160545.78
2023-01-09T17:44:42.257Z,160530.09
2023-01-09T17:47:46.379Z,160522.19
2023-01-09T17:50:50.493Z,160526.16
2023-01-09T17:53:54.659Z,160506.53
2023-01-09T17:57:00.583Z,160500.03
2023-01-09T18:00:06.421Z,160509.19
2023-01-09T18:03:10.263Z,160513.13
2023-01-09T18:06:16.534Z,160501.28
2023-01-09T18:09:20.930Z,160518.31
2023-01-09T18:12:24.949Z,160522.19
2023-01-09T18:15:29.086Z,160543.13
2023-01-09T18:18:33.661Z,160560.09
2023-01-09T18:21:37.656Z,160552.25
2023-01-09T18:24:42.069Z,160552.25
2023-01-09T18:27:46.591Z,160534.00
2023-01-09T18:30:51.491Z,160528.75
2023-01-09T18:33:57.012Z,160531.34
2023-01-09T18:37:01.225Z,160501.28
2023-01-09T18:40:05.767Z,160480.47
2023-01-09T18:43:11.410Z,160471.28
2023-01-09T18:46:16.409Z,160456.94
2023-01-09T18:49:20.221Z,160467.38
2023-01-09T18:52:24.661Z,160466.03
2023-01-09T18:55:28.603Z,160451.69
2023-01-09T18:58:34.183Z,160446.50
2023-01-09T19:01:38.512Z,160441.25
2023-01-09T19:04:42.832Z,160442.56
2023-01-09T19:07:47.022Z,160469.97
2023-01-09T19:10:52.609Z,160460.78
2023-01-09T19:13:57.124Z,160449.09
2023-01-09T19:17:01.738Z,160442.56
2023-01-09T19:20:07.332Z,160434.72
2023-01-09T19:23:11.657Z,160424.28
2023-01-09T19:26:23.971Z,160404.69
2023-01-09T19:29:29.160Z,160359.00
2023-01-09T19:32:33.048Z,160359.00
2023-01-09T19:35:37.645Z,160348.50
2023-01-09T19:38:41.933Z,160334.16
2023-01-09T19:41:46.156Z,160332.81
2023-01-09T19:44:50.029Z,160338.06
2023-01-09T19:47:53.794Z,160345.91
2023-01-09T19:51:03.115Z,160325.03
2023-01-09T19:54:09.517Z,160345.91
2023-01-09T19:57:13.654Z,160334.16
2023-01-09T20:00:18.171Z,160314.59
2023-01-09T20:03:25.520Z,160325.03
2023-01-09T20:06:30.921Z,160313.28
2023-01-09T20:09:35.107Z,160326.38
2023-01-09T20:12:39.282Z,160315.88
2023-01-09T20:15:44.437Z,160285.88
2023-01-09T20:18:48.705Z,160271.47
2023-01-09T20:21:53.347Z,160272.81
2023-01-09T20:24:57.609Z,160257.13
2023-01-09T20:28:01.956Z,160267.56
2023-01-09T20:31:10.398Z,160245.38
2023-01-09T20:34:15.586Z,160241.44
2023-01-09T20:37:19.377Z,160234.94
2023-01-09T20:40:23.352Z,160218.00
2023-01-09T20:43:27.937Z,160233.59
2023-01-09T20:46:57.059Z,160220.59
2023-01-09T20:50:00.958Z,160241.44
2023-01-09T20:53:07.756Z,160251.94
2023-01-09T20:56:12.471Z,160257.13
2023-01-09T20:59:20.116Z,160241.44
2023-01-09T21:02:23.932Z,160231.00
2023-01-09T21:05:28.256Z,160234.94
2023-01-09T21:08:32.394Z,160233.59
2023-01-09T21:11:36.975Z,160227.16
2023-01-09T21:14:41.225Z,160210.16
2023-01-09T21:17:45.284Z,160227.16
2023-01-09T21:20:49.823Z,160216.66
2023-01-09T21:23:57.057Z,160199.66
2023-01-09T21:27:03.990Z,160207.50
2023-01-09T21:30:09.926Z,160212.75
2023-01-09T21:33:14.255Z,160198.38
2023-01-09T21:36:18.872Z,160202.31
2023-01-09T21:39:23.246Z,160200.97
2023-01-09T21:42:45.822Z,160218.00
2023-01-09T21:46:08.634Z,160211.47
2023-01-09T21:49:12.852Z,160198.38
2023-01-09T21:52:18.412Z,160198.38
2023-01-09T21:55:22.613Z,160199.66
2023-01-09T21:58:26.817Z,160200.97
2023-01-09T22:01:30.647Z,160197.06
2023-01-09T22:04:34.541Z,160208.81
2023-01-09T22:07:38.551Z,160227.16
2023-01-09T22:10:42.656Z,160231.00
2023-01-09T22:13:48.394Z,160236.25
2023-01-09T22:16:52.300Z,160262.38
2023-01-09T22:19:56.478Z,160253.22
2023-01-09T22:23:01.159Z,160270.16
2023-01-09T22:26:14.088Z,160284.56
2023-01-09T22:29:18.028Z,160293.72
2023-01-09T22:32:22.528Z,160295.00
2023-01-09T22:35:26.823Z,160301.53
2023-01-09T22:38:30.957Z,160276.72
2023-01-09T22:41:35.099Z,160267.56
2023-01-09T22:44:39.238Z,160241.44
2023-01-09T22:47:43.267Z,160208.81
2023-01-09T22:50:47.523Z,160210.16
2023-01-09T22:53:51.346Z,160191.88
2023-01-09T22:56:55.493Z,160191.88
2023-01-09T22:59:59.193Z,160181.44
2023-01-09T23:03:03.179Z,160167.03
2023-01-09T23:06:11.135Z,160156.66
2023-01-09T23:09:15.148Z,160161.84
2023-01-09T23:12:19.287Z,160140.97
2023-01-09T23:15:23.081Z,160161.84
2023-01-09T23:18:27.727Z,160139.66
2023-01-09T23:21:31.734Z,160135.75
2023-01-09T23:24:35.696Z,160144.91
2023-01-09T23:27:40.305Z,160135.75
2023-01-09T23:30:44.453Z,160126.59
2023-01-09T23:33:48.861Z,160138.34
2023-01-09T23:36:55.326Z,160124.00
2023-01-09T23:39:59.520Z,160126.59
2023-01-09T23:43:09.290Z,160118.78
2023-01-09T23:46:13.291Z,160107.03
2023-01-09T23:49:17.643Z,160117.47
2023-01-09T23:52:21.721Z,160105.72
2023-01-09T23:55:26.807Z,160095.28
2023-01-09T23:58:30.653Z,160101.81
